Time;durP1;ratioP1;P1;durP2;ratioP2;P2;SDS_P1;SDS_P2;PMS_P1;PMS_P2;Temp;Humidity;BMP_temperature;BMP_pressure;BME280_temperature;BME280_humidity;BME280_pressure;Samples;Min_cycle;Max_cycle;Signal;HPM_P1;HPM_P2
2022/09/30 00:02:00;;;;;;;1.30;1.17;;;21.30;99.90;;;;;;5121773;28;20449;-64
2022/09/30 00:04:31;;;;;;;1.27;0.90;;;21.40;99.90;;;;;;5122350;28;20476;-64
2022/09/30 00:07:04;;;;;;;0.80;0.80;;;21.40;99.90;;;;;;5122679;28;20495;-64
2022/09/30 00:09:35;;;;;;;1.30;1.20;;;21.40;99.90;;;;;;5122195;28;20448;-64
2022/09/30 00:12:06;;;;;;;1.37;1.27;;;21.40;99.90;;;;;;5122689;28;20424;-64
2022/09/30 00:14:37;;;;;;;2.93;1.53;;;21.60;99.90;;;;;;5122322;28;20449;-64
2022/09/30 00:17:08;;;;;;;2.93;1.60;;;21.50;99.90;;;;;;5122434;28;20489;-64
2022/09/30 00:19:39;;;;;;;1.40;1.30;;;21.30;99.90;;;;;;5122323;28;20442;-65
2022/09/30 00:22:11;;;;;;;1.20;1.10;;;21.20;99.90;;;;;;5121926;28;20471;-64
2022/09/30 00:24:42;;;;;;;1.60;1.27;;;21.20;99.90;;;;;;5121111;28;20457;-64
2022/09/30 00:27:16;;;;;;;1.47;1.23;;;21.20;99.90;;;;;;5122775;28;20441;-64
2022/09/30 00:29:47;;;;;;;1.20;1.00;;;21.10;99.90;;;;;;5121767;28;20467;-65
2022/09/30 00:32:18;;;;;;;1.80;1.50;;;21.10;99.90;;;;;;5122058;28;20491;-64
2022/09/30 00:34:49;;;;;;;1.23;1.13;;;21.10;99.90;;;;;;5123580;28;20445;-65
2022/09/30 00:37:21;;;;;;;0.90;0.90;;;21.20;99.90;;;;;;5125914;28;20485;-65
2022/09/30 00:39:52;;;;;;;1.00;1.00;;;21.20;99.90;;;;;;5124499;28;20441;-65
2022/09/30 00:42:25;;;;;;;1.20;1.10;;;21.20;99.90;;;;;;5125860;28;20514;-65
2022/09/30 00:44:57;;;;;;;1.20;1.10;;;21.20;99.90;;;;;;5125489;28;20449;-65
2022/09/30 00:47:38;;;;;;;1.00;0.90;;;21.10;99.90;;;;;;5125652;28;20507;-64
2022/09/30 00:50:23;;;;;;;1.30;1.20;;;21.00;99.90;;;;;;5125205;27;20499;-65
2022/09/30 00:53:02;;;;;;;1.43;1.30;;;21.00;99.90;;;;;;5124980;28;20449;-65
2022/09/30 00:55:46;;;;;;;1.70;1.27;;;20.90;99.90;;;;;;5124315;28;20445;-64
2022/09/30 00:58:24;;;;;;;0.70;0.70;;;20.80;99.90;;;;;;5125138;28;20546;-65
2022/09/30 01:00:55;;;;;;;1.47;1.30;;;20.70;99.90;;;;;;5125447;28;20422;-64
2022/09/30 01:03:26;;;;;;;1.33;1.10;;;20.60;99.90;;;;;;5124767;28;20469;-65
2022/09/30 01:05:57;;;;;;;0.90;0.90;;;20.40;99.90;;;;;;5124937;28;20830;-64
2022/09/30 01:08:32;;;;;;;1.03;1.00;;;20.30;99.90;;;;;;5124658;28;20442;-65
2022/09/30 01:11:02;;;;;;;1.27;1.17;;;20.20;99.90;;;;;;5123774;28;20427;-65
2022/09/30 01:13:39;;;;;;;1.80;1.40;;;20.10;99.90;;;;;;5124562;28;20527;-64
2022/09/30 01:16:44;;;;;;;1.20;1.10;;;20.00;99.90;;;;;;5124567;28;20401;-65
2022/09/30 01:19:29;;;;;;;1.30;1.13;;;20.00;99.90;;;;;;5081488;28;20581;-65
2022/09/30 01:22:29;;;;;;;1.27;1.17;;;19.80;99.90;;;;;;5081318;28;20443;-65
2022/09/30 01:25:31;;;;;;;1.17;1.07;;;19.70;99.90;;;;;;5081378;28;20466;-65
2022/09/30 01:28:38;;;;;;;1.00;1.00;;;19.60;99.90;;;;;;5081977;28;21083;-64
2022/09/30 01:31:22;;;;;;;1.33;1.23;;;19.40;99.90;;;;;;5081555;28;20406;-65
2022/09/30 01:34:04;;;;;;;1.10;1.00;;;19.30;99.90;;;;;;5081299;28;20443;-65
2022/09/30 01:36:49;;;;;;;1.73;1.10;;;19.20;99.90;;;;;;5080946;28;20430;-65
2022/09/30 01:39:30;;;;;;;2.20;1.30;;;19.10;99.90;;;;;;5080922;28;20466;-65
2022/09/30 01:42:11;;;;;;;1.30;1.20;;;19.00;99.90;;;;;;5080582;28;20493;-65
2022/09/30 01:44:52;;;;;;;2.33;1.83;;;18.90;99.90;;;;;;5080593;28;20439;-65
2022/09/30 01:47:28;;;;;;;1.10;1.10;;;18.80;99.90;;;;;;5081208;28;20486;-65
2022/09/30 01:50:04;;;;;;;1.40;1.30;;;18.70;99.90;;;;;;5080552;28;20464;-64
2022/09/30 01:52:40;;;;;;;1.23;1.13;;;18.60;99.90;;;;;;5088355;28;20469;-65
2022/09/30 01:55:19;;;;;;;1.40;1.27;;;18.50;99.90;;;;;;5123780;28;20950;-65
2022/09/30 01:57:57;;;;;;;1.13;1.03;;;18.50;99.90;;;;;;5123961;28;20546;-64
2022/09/30 02:00:29;;;;;;;1.93;1.60;;;18.40;99.90;;;;;;5123890;27;20445;-65
2022/09/30 02:03:06;;;;;;;1.37;1.27;;;18.30;99.90;;;;;;5123626;28;20421;-64
2022/09/30 02:05:42;;;;;;;2.20;1.30;;;18.20;99.90;;;;;;5123314;28;20477;-64
2022/09/30 02:08:19;;;;;;;1.80;1.33;;;18.10;99.90;;;;;;5123819;28;20437;-65
2022/09/30 02:10:57;;;;;;;2.13;1.60;;;18.00;99.90;;;;;;5123059;28;20482;-64
2022/09/30 02:13:34;;;;;;;1.47;1.37;;;17.90;99.90;;;;;;5123862;28;20424;-64
2022/09/30 02:16:13;;;;;;;2.10;1.83;;;17.80;99.90;;;;;;5123560;28;20449;-65
2022/09/30 02:18:49;;;;;;;1.30;1.20;;;17.70;99.90;;;;;;5123554;28;20489;-64
2022/09/30 02:21:23;;;;;;;1.77;1.60;;;17.60;99.90;;;;;;5123459;28;20428;-65
2022/09/30 02:23:58;;;;;;;2.40;1.80;;;17.60;99.90;;;;;;5123337;28;20909;-65
2022/09/30 02:26:34;;;;;;;2.07;1.87;;;17.50;99.90;;;;;;5122830;28;20467;-65
2022/09/30 02:29:09;;;;;;;1.97;1.77;;;17.50;99.90;;;;;;5108524;28;20420;-65
2022/09/30 02:31:43;;;;;;;4.10;1.70;;;17.40;99.90;;;;;;5103178;28;20431;-65
2022/09/30 02:34:19;;;;;;;2.40;2.20;;;17.30;99.90;;;;;;5102483;28;20468;-65
2022/09/30 02:36:55;;;;;;;2.67;2.47;;;17.30;99.90;;;;;;5102767;28;20442;-65
2022/09/30 02:39:30;;;;;;;2.47;2.27;;;17.10;99.90;;;;;;5102789;28;20547;-65
2022/09/30 02:42:05;;;;;;;2.70;2.50;;;17.00;99.90;;;;;;5102297;28;20450;-65
2022/09/30 02:44:37;;;;;;;2.70;2.50;;;17.00;99.90;;;;;;5101830;28;20511;-65
2022/09/30 02:47:15;;;;;;;1.83;1.63;;;16.90;99.90;;;;;;5134740;27;20489;-65
2022/09/30 02:49:53;;;;;;;2.80;2.53;;;16.80;99.90;;;;;;5116527;27;20573;-64
2022/09/30 02:52:29;;;;;;;2.53;2.37;;;16.80;99.90;;;;;;5116929;27;20458;-65
2022/09/30 02:55:15;;;;;;;2.80;2.33;;;16.80;99.90;;;;;;5110776;27;20459;-65
2022/09/30 02:57:57;;;;;;;2.43;2.20;;;16.80;99.90;;;;;;5109129;27;20441;-65
2022/09/30 03:00:29;;;;;;;2.37;2.17;;;16.70;99.90;;;;;;5129899;27;20435;-65
2022/09/30 03:03:04;;;;;;;2.17;1.97;;;16.60;99.90;;;;;;5135550;27;20452;-63
2022/09/30 03:05:37;;;;;;;5.63;2.57;;;16.60;99.90;;;;;;5108484;27;20482;-65
2022/09/30 03:08:08;;;;;;;2.30;2.10;;;16.40;99.90;;;;;;5112206;27;20457;-65
2022/09/30 03:10:40;;;;;;;3.00;2.40;;;16.50;99.90;;;;;;5121150;27;20465;-65
2022/09/30 03:13:29;;;;;;;2.50;2.30;;;16.40;99.90;;;;;;5108840;27;20511;-64
2022/09/30 03:16:13;;;;;;;2.10;1.90;;;16.40;99.90;;;;;;5124305;27;20640;-65
2022/09/30 03:19:01;;;;;;;3.50;2.60;;;16.30;99.90;;;;;;5124515;27;20574;-65
2022/09/30 03:21:48;;;;;;;4.03;2.23;;;16.20;99.90;;;;;;5142019;28;20444;-65
2022/09/30 03:24:42;;;;;;;2.40;2.20;;;16.20;99.90;;;;;;5135639;27;20525;-64
2022/09/30 03:27:23;;;;;;;3.50;2.73;;;16.20;99.90;;;;;;5133735;28;20445;-64
2022/09/30 03:30:02;;;;;;;2.47;2.20;;;16.20;99.90;;;;;;5105786;28;20472;-65
2022/09/30 03:32:49;;;;;;;3.20;2.63;;;16.10;99.90;;;;;;5121824;28;20498;-65
2022/09/30 03:35:29;;;;;;;2.73;2.53;;;16.10;99.90;;;;;;5116923;28;20483;-65
2022/09/30 03:38:08;;;;;;;3.03;2.73;;;16.10;99.90;;;;;;5120893;28;20428;-65
2022/09/30 03:40:44;;;;;;;3.57;2.40;;;16.00;99.90;;;;;;5122093;28;20477;-65
2022/09/30 03:43:24;;;;;;;2.43;2.23;;;15.90;99.90;;;;;;5122414;28;20468;-66
2022/09/30 03:46:00;;;;;;;3.57;2.53;;;15.80;99.90;;;;;;5114485;28;20808;-66
2022/09/30 03:48:32;;;;;;;3.70;2.90;;;15.70;99.90;;;;;;5115014;27;20425;-65
2022/09/30 03:51:04;;;;;;;3.10;2.67;;;15.70;99.90;;;;;;5134631;28;20423;-65
2022/09/30 03:53:41;;;;;;;3.00;2.60;;;15.60;99.90;;;;;;5126119;27;20441;-65
2022/09/30 03:56:13;;;;;;;2.97;2.67;;;15.60;99.90;;;;;;5112220;27;20462;-66
2022/09/30 03:58:45;;;;;;;2.87;2.57;;;15.60;99.90;;;;;;5120275;28;20472;-66
2022/09/30 04:01:20;;;;;;;4.87;2.70;;;15.70;99.90;;;;;;5124256;27;20460;-66
2022/09/30 04:03:51;;;;;;;2.80;2.50;;;15.70;99.90;;;;;;5136185;27;20493;-65
2022/09/30 04:06:23;;;;;;;2.80;2.50;;;15.70;99.90;;;;;;5120052;27;20469;-65
2022/09/30 04:08:56;;;;;;;4.53;3.03;;;15.70;99.90;;;;;;5123521;27;20453;-65
2022/09/30 04:11:28;;;;;;;3.20;2.73;;;15.60;99.90;;;;;;5128292;27;20427;-65
2022/09/30 04:14:00;;;;;;;6.33;3.00;;;15.50;99.90;;;;;;5128557;27;20449;-66
2022/09/30 04:16:31;;;;;;;7.40;3.63;;;15.50;99.90;;;;;;5127701;27;20458;-66
2022/09/30 04:19:02;;;;;;;3.73;2.23;;;15.50;99.90;;;;;;5140835;27;20523;-65
2022/09/30 04:21:33;;;;;;;5.40;2.83;;;15.50;99.90;;;;;;5122491;27;20420;-65
2022/09/30 04:24:06;;;;;;;3.57;3.27;;;15.40;99.90;;;;;;5127497;27;20489;-65
2022/09/30 04:26:37;;;;;;;3.20;2.37;;;15.30;99.90;;;;;;5132141;27;20483;-64
2022/09/30 04:29:07;;;;;;;3.13;2.60;;;15.30;99.90;;;;;;5128051;27;20502;-64
2022/09/30 04:31:38;;;;;;;3.47;2.50;;;15.40;99.90;;;;;;5129339;27;20484;-64
2022/09/30 04:34:10;;;;;;;3.37;2.40;;;15.40;99.90;;;;;;5137378;27;20468;-64
2022/09/30 04:36:41;;;;;;;3.30;2.70;;;15.30;99.90;;;;;;5132841;27;20446;-66
2022/09/30 04:39:14;;;;;;;4.23;3.10;;;15.30;99.90;;;;;;5142471;27;20484;-66
2022/09/30 04:41:45;;;;;;;3.40;2.80;;;15.30;99.90;;;;;;5144975;27;20463;-65
2022/09/30 04:44:16;;;;;;;2.90;2.67;;;15.20;99.90;;;;;;5145770;27;20449;-65
2022/09/30 04:46:47;;;;;;;4.00;3.10;;;15.10;99.90;;;;;;5145776;27;20481;-63
2022/09/30 04:49:17;;;;;;;3.20;2.40;;;15.00;99.90;;;;;;5124726;27;20461;-64
2022/09/30 04:51:48;;;;;;;3.10;2.47;;;15.00;99.90;;;;;;5120404;27;20525;-64
2022/09/30 04:54:22;;;;;;;3.63;3.00;;;15.10;99.90;;;;;;5145381;27;20470;-65
2022/09/30 04:56:52;;;;;;;4.00;2.83;;;15.00;99.90;;;;;;5144653;27;21283;-64
2022/09/30 04:59:23;;;;;;;2.10;1.90;;;15.00;99.90;;;;;;5145296;27;20487;-65
2022/09/30 05:01:55;;;;;;;3.03;2.73;;;15.00;99.90;;;;;;5135379;27;20509;-64
2022/09/30 05:04:26;;;;;;;3.60;2.23;;;15.00;99.90;;;;;;5143766;27;20568;-65
2022/09/30 05:06:56;;;;;;;4.53;3.07;;;15.00;99.90;;;;;;5141088;27;20490;-66
2022/09/30 05:09:29;;;;;;;3.50;2.63;;;14.90;99.90;;;;;;5138814;27;20457;-65
2022/09/30 05:12:01;;;;;;;4.00;2.67;;;14.90;99.90;;;;;;5127583;27;20556;-64
2022/09/30 05:14:32;;;;;;;2.90;2.67;;;14.90;99.90;;;;;;5145034;27;20463;-64
2022/09/30 05:17:03;;;;;;;2.80;2.60;;;14.70;99.90;;;;;;5140199;27;20526;-64
2022/09/30 05:19:33;;;;;;;4.67;3.40;;;14.70;99.90;;;;;;5135109;27;20556;-63
2022/09/30 05:22:04;;;;;;;3.40;2.33;;;14.70;99.90;;;;;;5126834;27;20556;-65
2022/09/30 05:24:38;;;;;;;3.53;2.80;;;14.60;99.90;;;;;;5141945;27;20457;-65
2022/09/30 05:27:08;;;;;;;3.60;3.10;;;14.60;99.90;;;;;;5120737;27;20466;-66
2022/09/30 05:29:39;;;;;;;3.97;3.10;;;14.60;99.90;;;;;;5118263;27;20478;-64
2022/09/30 05:32:10;;;;;;;3.53;2.90;;;14.50;99.90;;;;;;5121661;27;20454;-64
2022/09/30 05:34:41;;;;;;;4.10;3.00;;;14.60;99.90;;;;;;5130353;27;20530;-64
2022/09/30 05:37:12;;;;;;;3.20;2.90;;;14.60;99.90;;;;;;5125383;27;21265;-65
2022/09/30 05:39:45;;;;;;;4.67;2.90;;;14.60;99.90;;;;;;5125152;27;20505;-65
2022/09/30 05:42:16;;;;;;;4.70;3.20;;;14.50;99.90;;;;;;5123481;27;20519;-65
2022/09/30 05:44:47;;;;;;;2.83;2.50;;;14.40;99.90;;;;;;5133509;27;20854;-66
2022/09/30 05:47:18;;;;;;;3.70;2.90;;;14.30;99.90;;;;;;5135287;27;20482;-65
2022/09/30 05:49:49;;;;;;;4.57;3.10;;;14.20;99.90;;;;;;5132073;27;20501;-65
2022/09/30 05:52:24;;;;;;;5.33;4.07;;;14.20;99.90;;;;;;5129265;27;20465;-65
2022/09/30 05:54:59;;;;;;;3.03;2.77;;;14.20;99.90;;;;;;5129840;27;20631;-65
2022/09/30 05:57:31;;;;;;;2.50;2.30;;;14.20;99.90;;;;;;5142513;27;20461;-65
2022/09/30 06:00:02;;;;;;;3.80;3.30;;;14.10;99.90;;;;;;5120411;27;20839;-65
2022/09/30 06:02:37;;;;;;;4.23;3.40;;;14.20;99.90;;;;;;5125026;27;20458;-65
2022/09/30 06:05:08;;;;;;;5.27;3.47;;;14.10;99.90;;;;;;5123358;27;20847;-65
2022/09/30 06:07:39;;;;;;;4.03;3.50;;;14.10;99.90;;;;;;5137142;27;20585;-65
2022/09/30 06:10:12;;;;;;;4.87;3.47;;;14.10;99.90;;;;;;5126758;27;20494;-65
2022/09/30 06:12:43;;;;;;;4.07;3.43;;;14.20;99.90;;;;;;5133094;27;20517;-65
2022/09/30 06:15:14;;;;;;;4.77;4.30;;;14.20;99.90;;;;;;5119480;28;20447;-65
2022/09/30 06:17:45;;;;;;;4.30;3.30;;;14.10;99.90;;;;;;5106598;28;20510;-65
2022/09/30 06:20:16;;;;;;;4.37;3.77;;;14.00;99.90;;;;;;5103498;28;20563;-65
2022/09/30 06:22:47;;;;;;;4.90;3.50;;;14.00;99.90;;;;;;5107020;27;20462;-65
2022/09/30 06:25:21;;;;;;;3.60;3.10;;;13.90;99.90;;;;;;5114737;27;20520;-65
2022/09/30 06:27:51;;;;;;;2.97;2.43;;;13.90;99.90;;;;;;5107970;28;20462;-65
2022/09/30 06:30:22;;;;;;;3.83;3.03;;;13.90;99.90;;;;;;5107895;27;21007;-65
2022/09/30 06:32:56;;;;;;;3.17;2.87;;;13.90;99.90;;;;;;5114959;27;20451;-65
2022/09/30 06:35:27;;;;;;;3.60;2.67;;;13.80;99.90;;;;;;5103744;28;20446;-65
2022/09/30 06:37:58;;;;;;;4.00;3.30;;;13.70;99.90;;;;;;5125895;27;20529;-65
2022/09/30 06:40:31;;;;;;;3.27;3.00;;;13.70;99.90;;;;;;5138022;27;20492;-65
2022/09/30 06:43:02;;;;;;;3.30;2.60;;;13.70;99.90;;;;;;5127662;27;20460;-65
2022/09/30 06:45:34;;;;;;;3.90;2.47;;;13.70;99.90;;;;;;5143472;27;20807;-65
2022/09/30 06:48:07;;;;;;;4.90;3.10;;;13.70;99.90;;;;;;5142841;27;20445;-65
2022/09/30 06:50:38;;;;;;;3.53;3.17;;;13.60;99.90;;;;;;5140527;27;20449;-65
2022/09/30 06:53:13;;;;;;;4.70;2.80;;;13.70;99.90;;;;;;5142706;27;20605;-64
2022/09/30 06:55:45;;;;;;;3.50;2.73;;;13.70;99.90;;;;;;5142264;27;20453;-65
2022/09/30 06:58:17;;;;;;;3.67;2.80;;;13.60;99.90;;;;;;5142980;27;20482;-65
2022/09/30 07:00:56;;;;;;;3.43;3.10;;;13.60;99.90;;;;;;5143251;27;20533;-65
2022/09/30 07:03:29;;;;;;;3.47;3.07;;;13.60;99.90;;;;;;5142732;27;20449;-65
2022/09/30 07:06:01;;;;;;;3.23;2.90;;;13.60;99.90;;;;;;5140731;27;20575;-65
2022/09/30 07:08:33;;;;;;;5.87;3.60;;;13.50;99.90;;;;;;5131828;27;20460;-65
2022/09/30 07:11:13;;;;;;;3.70;3.23;;;13.40;99.90;;;;;;5128811;27;20992;-65
2022/09/30 07:13:45;;;;;;;5.50;3.27;;;13.40;99.90;;;;;;5137390;27;20460;-65
2022/09/30 07:16:17;;;;;;;3.70;2.93;;;13.40;99.90;;;;;;5137529;27;20509;-65
2022/09/30 07:18:49;;;;;;;3.87;3.07;;;13.40;99.90;;;;;;5120826;27;20474;-65
2022/09/30 07:21:19;;;;;;;3.80;3.23;;;13.40;99.90;;;;;;5131155;27;20565;-64
2022/09/30 07:23:51;;;;;;;3.50;2.40;;;13.40;99.90;;;;;;5121045;28;20461;-65
2022/09/30 07:26:25;;;;;;;3.77;2.57;;;13.20;99.90;;;;;;5128027;28;20453;-65
2022/09/30 07:28:56;;;;;;;2.60;2.13;;;13.30;99.90;;;;;;5125362;28;20461;-65
2022/09/30 07:31:28;;;;;;;4.77;3.27;;;13.40;99.90;;;;;;5129279;28;20461;-65
2022/09/30 07:34:05;;;;;;;4.73;2.77;;;13.30;99.90;;;;;;5131147;28;20520;-64
2022/09/30 07:36:37;;;;;;;3.00;2.60;;;13.30;99.90;;;;;;5135184;28;20482;-65
2022/09/30 07:39:10;;;;;;;3.20;2.70;;;13.30;99.90;;;;;;5136212;28;20453;-66
2022/09/30 07:41:44;;;;;;;3.17;2.70;;;13.30;99.90;;;;;;5129773;27;20518;-66
2022/09/30 07:44:16;;;;;;;3.07;2.17;;;13.30;99.90;;;;;;5118082;27;20457;-66
2022/09/30 07:46:47;;;;;;;4.40;3.20;;;13.30;99.90;;;;;;5140518;27;20452;-64
2022/09/30 07:49:23;;;;;;;4.40;2.80;;;13.30;99.90;;;;;;5144762;27;20513;-66
2022/09/30 07:51:55;;;;;;;2.97;2.63;;;13.20;99.90;;;;;;5136995;27;20467;-65
2022/09/30 07:54:28;;;;;;;3.17;2.33;;;13.00;99.90;;;;;;5127016;27;21247;-65
2022/09/30 07:57:02;;;;;;;2.50;2.30;;;13.00;99.90;;;;;;5126447;27;20471;-65
2022/09/30 07:59:42;;;;;;;2.67;2.33;;;12.90;99.90;;;;;;5144266;27;20460;-64
2022/09/30 08:02:19;;;;;;;4.67;3.07;;;13.00;99.90;;;;;;5131649;27;20505;-65
2022/09/30 08:04:50;;;;;;;2.83;2.30;;;12.90;99.90;;;;;;5127818;27;20484;-65
2022/09/30 08:07:21;;;;;;;2.40;2.10;;;12.90;99.90;;;;;;5139291;27;20448;-65
2022/09/30 08:09:52;;;;;;;4.00;3.00;;;12.90;99.90;;;;;;5119418;27;20458;-65
2022/09/30 08:12:24;;;;;;;2.87;2.30;;;13.00;99.90;;;;;;5117911;27;20552;-65
2022/09/30 08:14:55;;;;;;;3.77;2.00;;;12.90;99.90;;;;;;5128414;27;20487;-65
2022/09/30 08:17:26;;;;;;;4.50;2.70;;;12.90;99.90;;;;;;5144537;27;20492;-65
2022/09/30 08:19:57;;;;;;;1.93;1.73;;;12.80;99.90;;;;;;5122368;27;20518;-65
2022/09/30 08:22:28;;;;;;;2.33;2.13;;;12.80;99.90;;;;;;5124874;27;20481;-65
2022/09/30 08:24:58;;;;;;;2.63;2.43;;;12.80;99.90;;;;;;5137024;27;20461;-65
2022/09/30 08:27:31;;;;;;;2.37;2.20;;;12.70;99.90;;;;;;5138946;27;20465;-65
2022/09/30 08:30:01;;;;;;;2.07;1.83;;;12.70;99.90;;;;;;5134602;27;20592;-65
2022/09/30 08:32:33;;;;;;;2.97;2.73;;;12.70;99.90;;;;;;5140812;27;20477;-65
2022/09/30 08:35:04;;;;;;;3.40;2.60;;;12.60;99.90;;;;;;5125530;27;20511;-64
2022/09/30 08:37:35;;;;;;;3.30;2.17;;;12.50;99.90;;;;;;5131981;27;20464;-65
2022/09/30 08:40:07;;;;;;;2.00;1.90;;;12.60;99.90;;;;;;5141650;27;20452;-65
2022/09/30 08:42:56;;;;;;;2.33;1.73;;;12.60;99.90;;;;;;5137203;27;20492;-65
2022/09/30 08:45:44;;;;;;;2.20;1.33;;;12.70;99.90;;;;;;5139291;27;20453;-66
2022/09/30 08:48:32;;;;;;;3.97;2.20;;;12.70;99.90;;;;;;5136452;27;20526;-65
2022/09/30 08:51:10;;;;;;;2.83;1.87;;;12.80;99.90;;;;;;5131649;27;20527;-66
2022/09/30 08:53:46;;;;;;;2.50;1.70;;;12.90;99.90;;;;;;5127604;27;20506;-67
2022/09/30 08:56:24;;;;;;;2.03;1.67;;;12.90;99.90;;;;;;5136073;27;21129;-64
2022/09/30 08:59:00;;;;;;;2.27;1.73;;;12.90;99.90;;;;;;5145922;27;20521;-65
2022/09/30 09:01:34;;;;;;;2.53;2.20;;;13.00;99.90;;;;;;5131843;27;20566;-64
2022/09/30 09:04:07;;;;;;;5.57;2.23;;;12.90;99.90;;;;;;5121054;27;20486;-65
2022/09/30 09:06:49;;;;;;;3.20;2.30;;;12.90;99.90;;;;;;5120401;27;20457;-64
2022/09/30 09:09:41;;;;;;;3.57;2.13;;;12.90;99.90;;;;;;5126254;27;20458;-65
2022/09/30 09:12:26;;;;;;;2.17;1.97;;;12.90;99.90;;;;;;5143107;27;20472;-66
2022/09/30 09:15:15;;;;;;;2.20;1.77;;;13.00;99.90;;;;;;5114300;27;20444;-65
2022/09/30 09:18:02;;;;;;;2.93;1.77;;;12.90;99.90;;;;;;5117302;27;20458;-65
2022/09/30 09:20:56;;;;;;;3.10;2.60;;;12.90;99.90;;;;;;5129099;27;20456;-65
2022/09/30 09:23:30;;;;;;;2.23;1.93;;;13.00;99.90;;;;;;5128713;27;20636;-64
2022/09/30 09:26:01;;;;;;;2.60;2.10;;;13.00;99.90;;;;;;5137994;27;20513;-65
2022/09/30 09:28:38;;;;;;;3.50;1.70;;;13.10;99.90;;;;;;5137580;27;20465;-65
2022/09/30 09:31:16;;;;;;;3.60;2.10;;;13.20;99.90;;;;;;5129770;27;20538;-65
2022/09/30 09:33:48;;;;;;;3.10;2.10;;;13.40;99.90;;;;;;5115693;27;20457;-65
2022/09/30 09:36:36;;;;;;;7.13;2.10;;;13.50;99.90;;;;;;5142006;27;20445;-66
2022/09/30 09:39:29;;;;;;;3.00;2.00;;;13.50;99.90;;;;;;5130631;27;20457;-65
2022/09/30 09:42:09;;;;;;;1.70;1.60;;;13.60;99.90;;;;;;5138795;27;20492;-65
2022/09/30 09:44:48;;;;;;;2.37;1.90;;;13.80;99.90;;;;;;5126474;27;20487;-65
2022/09/30 09:47:21;;;;;;;2.17;1.83;;;13.80;99.90;;;;;;5118500;27;20485;-65
2022/09/30 09:49:55;;;;;;;2.60;2.20;;;13.80;99.90;;;;;;5141665;27;20453;-65
2022/09/30 09:52:53;;;;;;;3.43;2.63;;;13.90;99.90;;;;;;5124989;27;20885;-66
2022/09/30 09:55:24;;;;;;;2.47;1.77;;;13.90;99.90;;;;;;5121831;27;20458;-65
2022/09/30 09:58:12;;;;;;;1.60;1.50;;;14.00;99.90;;;;;;5140682;27;20538;-65
2022/09/30 10:03:29;;;;;;;2.47;1.70;;;14.10;99.90;;;;;;5132990;27;20503;-65
2022/09/30 10:06:07;;;;;;;2.73;1.57;;;14.10;99.90;;;;;;5120325;27;20455;-65
2022/09/30 10:08:40;;;;;;;1.97;1.63;;;14.10;99.90;;;;;;5138523;27;20514;-65
2022/09/30 10:11:24;;;;;;;2.03;1.57;;;14.20;99.90;;;;;;5132835;27;20488;-65
2022/09/30 10:14:00;;;;;;;1.50;1.30;;;14.30;99.90;;;;;;5139872;27;20538;-65
2022/09/30 10:16:34;;;;;;;2.63;2.10;;;14.30;99.90;;;;;;5131624;27;20532;-65
2022/09/30 10:19:20;;;;;;;2.53;1.57;;;14.30;99.90;;;;;;5134363;27;20951;-65
2022/09/30 10:21:50;;;;;;;3.30;2.10;;;14.40;99.90;;;;;;5118985;27;20461;-65
2022/09/30 10:24:32;;;;;;;3.07;1.70;;;14.50;99.90;;;;;;5130105;27;20483;-65
2022/09/30 10:27:03;;;;;;;4.80;2.37;;;14.40;99.90;;;;;;5142540;27;20555;-65
2022/09/30 10:29:35;;;;;;;2.80;1.87;;;14.40;99.90;;;;;;5130089;27;20456;-65
2022/09/30 10:32:09;;;;;;;2.07;1.80;;;14.40;99.90;;;;;;5135670;27;20473;-65
2022/09/30 10:34:44;;;;;;;1.77;1.63;;;14.50;99.90;;;;;;5134286;27;20534;-64
2022/09/30 10:37:17;;;;;;;3.90;2.23;;;14.40;99.90;;;;;;5132270;27;20552;-66
2022/09/30 10:39:57;;;;;;;1.53;1.40;;;14.40;99.90;;;;;;5118481;27;20450;-65
2022/09/30 10:42:30;;;;;;;1.90;1.40;;;14.40;99.90;;;;;;5116975;27;20589;-65
2022/09/30 10:45:05;;;;;;;1.70;1.60;;;14.40;99.90;;;;;;5136436;27;20492;-65
2022/09/30 10:47:35;;;;;;;2.07;1.80;;;14.50;99.90;;;;;;5118033;27;20469;-66
2022/09/30 10:50:12;;;;;;;2.00;1.43;;;14.40;99.90;;;;;;5137611;27;20486;-66
2022/09/30 10:52:52;;;;;;;4.63;1.70;;;14.50;99.90;;;;;;5122041;27;20471;-65
2022/09/30 10:55:32;;;;;;;2.10;1.83;;;14.50;99.90;;;;;;5133864;27;20559;-65
2022/09/30 10:58:38;;;;;;;3.70;2.37;;;14.60;99.90;;;;;;5125894;27;20457;-65
2022/09/30 11:01:21;;;;;;;1.90;1.37;;;14.60;99.90;;;;;;5139807;27;20448;-66
2022/09/30 11:04:01;;;;;;;2.30;1.33;;;14.60;99.90;;;;;;5128474;27;20500;-66
2022/09/30 11:06:39;;;;;;;2.50;1.53;;;14.60;99.90;;;;;;5133961;27;20453;-66
2022/09/30 11:09:15;;;;;;;2.13;1.47;;;14.60;99.90;;;;;;5116373;27;20462;-66
2022/09/30 11:11:52;;;;;;;2.93;1.13;;;14.60;99.90;;;;;;5125971;27;20494;-66
2022/09/30 11:14:33;;;;;;;1.60;1.50;;;14.60;99.90;;;;;;5141757;27;20456;-65
2022/09/30 11:17:11;;;;;;;1.93;1.13;;;14.70;99.90;;;;;;5134440;27;20560;-66
2022/09/30 11:19:50;;;;;;;2.83;2.30;;;14.70;99.90;;;;;;5125022;27;20457;-66
2022/09/30 11:22:34;;;;;;;1.57;1.43;;;14.60;99.90;;;;;;5129985;27;20535;-66
2022/09/30 11:25:06;;;;;;;3.03;1.70;;;14.70;99.90;;;;;;5142106;28;20560;-66
2022/09/30 11:27:51;;;;;;;3.30;1.90;;;14.60;99.90;;;;;;5124374;27;20452;-66
2022/09/30 11:30:29;;;;;;;2.30;1.83;;;14.60;99.90;;;;;;5132454;28;20485;-66
2022/09/30 11:33:17;;;;;;;3.43;2.80;;;14.70;99.90;;;;;;5121018;27;20454;-65
2022/09/30 11:35:57;;;;;;;3.33;2.70;;;14.70;99.90;;;;;;5120001;28;20468;-65
2022/09/30 11:38:52;;;;;;;2.70;2.50;;;14.60;99.90;;;;;;5135730;27;20519;-66
2022/09/30 11:41:28;;;;;;;3.10;2.47;;;14.70;99.90;;;;;;5129325;28;20606;-66
2022/09/30 11:44:15;;;;;;;3.00;2.63;;;14.70;99.90;;;;;;5131567;27;20482;-66
2022/09/30 11:47:06;;;;;;;2.30;1.93;;;14.70;99.90;;;;;;5126649;28;20849;-66
2022/09/30 11:50:14;;;;;;;3.20;2.80;;;14.80;99.90;;;;;;5142880;27;20486;-66
2022/09/30 11:52:56;;;;;;;3.77;2.23;;;14.80;99.90;;;;;;5050699;28;20440;-66
2022/09/30 11:55:56;;;;;;;3.43;3.03;;;14.80;99.90;;;;;;5050694;28;20453;-66
2022/09/30 11:58:30;;;;;;;4.47;3.10;;;14.80;99.90;;;;;;5056084;28;20525;-65
2022/09/30 12:01:22;;;;;;;3.43;2.90;;;14.70;99.90;;;;;;5058671;28;20579;-66
2022/09/30 12:04:00;;;;;;;3.20;2.60;;;14.80;99.90;;;;;;5058247;28;20565;-66
2022/09/30 12:06:35;;;;;;;2.83;2.50;;;14.80;99.90;;;;;;5057565;28;20475;-65
2022/09/30 12:09:17;;;;;;;3.10;2.80;;;14.90;99.90;;;;;;5030207;28;20460;-66
2022/09/30 12:11:56;;;;;;;3.00;2.40;;;14.90;99.90;;;;;;5039744;28;20518;-66
2022/09/30 12:14:31;;;;;;;4.13;2.93;;;14.80;99.90;;;;;;5058584;28;20506;-66
2022/09/30 12:17:06;;;;;;;4.00;3.50;;;14.90;99.90;;;;;;5032920;28;20523;-65
2022/09/30 12:19:44;;;;;;;4.20;3.80;;;14.80;99.90;;;;;;5044635;28;20569;-66
2022/09/30 12:22:21;;;;;;;4.17;3.00;;;14.80;99.90;;;;;;5041649;28;20488;-66
2022/09/30 12:24:52;;;;;;;3.37;2.47;;;14.80;99.90;;;;;;5052041;28;20528;-66
2022/09/30 12:27:30;;;;;;;3.50;3.20;;;14.70;99.90;;;;;;5045733;28;20526;-65
2022/09/30 12:30:19;;;;;;;4.13;2.90;;;14.80;99.90;;;;;;5134399;27;20469;-66
2022/09/30 12:33:25;;;;;;;3.57;2.93;;;14.80;99.90;;;;;;5119040;27;20461;-66
2022/09/30 12:36:21;;;;;;;3.97;3.07;;;14.80;99.90;;;;;;5131884;27;20505;-66
2022/09/30 12:39:24;;;;;;;3.10;2.60;;;14.70;99.90;;;;;;5121780;27;20458;-66
2022/09/30 12:42:11;;;;;;;3.70;3.27;;;14.70;99.90;;;;;;5140347;27;20528;-66
2022/09/30 12:45:13;;;;;;;2.97;2.70;;;14.80;99.90;;;;;;5142058;27;20536;-66
2022/09/30 12:47:49;;;;;;;3.40;2.67;;;14.80;99.90;;;;;;5101158;27;20862;-65
2022/09/30 12:50:24;;;;;;;5.10;3.53;;;14.70;99.90;;;;;;5130197;27;20522;-66
2022/09/30 12:52:56;;;;;;;7.40;3.40;;;14.70;99.90;;;;;;5137416;27;20452;-66
2022/09/30 12:55:30;;;;;;;2.93;2.60;;;14.70;99.90;;;;;;5115479;27;20445;-66
2022/09/30 12:58:02;;;;;;;2.60;2.23;;;14.80;99.90;;;;;;5131234;27;20490;-66
2022/09/30 13:00:36;;;;;;;3.40;3.10;;;14.80;99.90;;;;;;5125538;27;20454;-66
2022/09/30 13:03:14;;;;;;;3.17;2.87;;;14.70;99.90;;;;;;5118991;27;20849;-66
2022/09/30 13:05:56;;;;;;;4.17;3.07;;;14.70;99.90;;;;;;5120596;27;20481;-65
2022/09/30 13:08:43;;;;;;;3.83;2.97;;;14.80;99.90;;;;;;5126663;27;20567;-66
2022/09/30 13:11:41;;;;;;;4.50;3.70;;;14.70;99.90;;;;;;5134761;27;20453;-66
2022/09/30 13:14:34;;;;;;;4.17;3.40;;;14.80;99.90;;;;;;5115306;27;20971;-66
2022/09/30 13:17:31;;;;;;;4.97;3.57;;;14.80;99.90;;;;;;5130382;27;20588;-66
2022/09/30 13:20:02;;;;;;;5.10;3.07;;;14.80;99.90;;;;;;5116396;27;20530;-66
2022/09/30 13:22:58;;;;;;;4.23;3.20;;;14.80;99.90;;;;;;5132198;27;20466;-66
2022/09/30 13:25:49;;;;;;;5.17;4.10;;;14.80;99.90;;;;;;5118383;27;20493;-65
2022/09/30 13:28:30;;;;;;;3.40;3.10;;;14.80;99.90;;;;;;5131892;27;20509;-66
2022/09/30 13:31:19;;;;;;;5.60;3.63;;;14.80;99.90;;;;;;5134906;27;20464;-65
2022/09/30 13:34:11;;;;;;;5.67;3.90;;;14.80;99.90;;;;;;5104923;27;20454;-66
2022/09/30 13:36:57;;;;;;;4.43;3.60;;;14.80;99.90;;;;;;5124829;27;20462;-65
2022/09/30 13:39:32;;;;;;;6.13;3.63;;;14.70;99.90;;;;;;5138866;27;20453;-65
2022/09/30 13:42:13;;;;;;;4.20;3.40;;;14.70;99.90;;;;;;5129919;27;20527;-65